ココス (キーリング) 諸島 の空港の天気 - METARとTAF

ココス島国際空港 ( YPCC / CCK ) - ココス諸島 ココス (キーリング) 諸島
飛行場実況気象(Metar)
観測時間05/28 16:30 CCT (05/28 10:00 UTC)
風向・風速南 7m/s
視程10km以上
天気現象
全天の4割程度の雲 雲底高度 1190m
全天の8割程度の雲 雲底高度 1430m
全天の8割程度の雲 雲底高度 1680m
気温27℃
湿度66%
気圧1009hPa
METARYPCC 281000Z AUTO 18013KT 9999 // SCT039 BKN047 BKN055 27/20 Q1009
過去の天気等 Google飛行場航空写真 Wunderground天気予報

過去48時間のMETAR

飛行場予報(TAF)
発表時間: 5/28 10:24 CCT (5/28 03:54 UTC)
予報対象時間: 28日9時 CCT ~ 29日12時 CCT
風向・風速南 8m/s
視程10km以上
全天の4割程度の雲 雲底高度 760m
TAF AMD YPCC 280354Z 2803/2906 17016KT 9999 SCT025